Galena, Alaska
Current Conditions -  °F | °C
As of 4:58 PM on Saturday 22 Nov 2014 (Local Time) from PAGA Reporting Station
Clear Clear  
Wind Chill: -5°   Ceiling: Unl
Heat Index:   Visibility: 10mi
Dew Point: -7°   Wind: 7mph
Humidity: 53%   Direction: 30°NNE
Pressure: 29.48"   Gusts: NA
Location:  64.74°N, 156.93°W
Report Text: PAGA 230158Z AUTO 03006KT 10SM CLR M14/M22 A2948 RMK AO2 SLP989 T11391217 FZRANO
Loading
Personal Weather Stations






























Interactive Weather Map New forecast layout! Learn more

10-Day Weather Forecast

Advertisements
Track Severe Weather on mobile